sensor_id;sensor_type;location;lat;lon;timestamp;P1;durP1;ratioP1;P2;durP2;ratioP2
53411;SDS011;39307;52.870;13.660;2024-03-23T00:55:37;4.22;;;2.53;;
53411;SDS011;39307;52.870;13.660;2024-03-23T00:58:03;3.87;;;2.47;;
53411;SDS011;39307;52.870;13.660;2024-03-23T01:00:30;4.57;;;2.67;;
53411;SDS011;39307;52.870;13.660;2024-03-23T01:02:57;3.53;;;2.40;;
53411;SDS011;39307;52.870;13.660;2024-03-23T01:05:24;3.67;;;2.43;;
53411;SDS011;39307;52.870;13.660;2024-03-23T01:07:51;4.30;;;2.70;;
53411;SDS011;39307;52.870;13.660;2024-03-23T01:10:17;4.65;;;2.60;;
53411;SDS011;39307;52.870;13.660;2024-03-23T01:12:44;4.03;;;2.60;;
53411;SDS011;39307;52.870;13.660;2024-03-23T01:15:11;4.68;;;2.47;;
53411;SDS011;39307;52.870;13.660;2024-03-23T01:17:38;3.95;;;2.10;;
53411;SDS011;39307;52.870;13.660;2024-03-23T01:20:04;4.37;;;2.67;;
53411;SDS011;39307;52.870;13.660;2024-03-23T01:22:32;4.63;;;2.40;;
53411;SDS011;39307;52.870;13.660;2024-03-23T01:24:59;4.10;;;2.47;;
53411;SDS011;39307;52.870;13.660;2024-03-23T01:27:26;4.07;;;2.42;;
53411;SDS011;39307;52.870;13.660;2024-03-23T01:29:52;4.07;;;2.47;;
53411;SDS011;39307;52.870;13.660;2024-03-23T01:32:19;4.18;;;2.60;;
53411;SDS011;39307;52.870;13.660;2024-03-23T01:34:46;4.18;;;2.50;;
53411;SDS011;39307;52.870;13.660;2024-03-23T01:37:13;4.28;;;2.53;;
53411;SDS011;39307;52.870;13.660;2024-03-23T01:39:40;4.25;;;2.53;;
53411;SDS011;39307;52.870;13.660;2024-03-23T01:42:06;4.63;;;2.60;;
53411;SDS011;39307;52.870;13.660;2024-03-23T01:44:33;3.97;;;2.30;;
53411;SDS011;39307;52.870;13.660;2024-03-23T01:47:00;4.22;;;2.40;;
53411;SDS011;39307;52.870;13.660;2024-03-23T01:49:27;4.00;;;2.38;;
53411;SDS011;39307;52.870;13.660;2024-03-23T01:51:54;3.83;;;2.38;;
53411;SDS011;39307;52.870;13.660;2024-03-23T01:54:21;3.17;;;2.30;;
53411;SDS011;39307;52.870;13.660;2024-03-23T01:56:49;3.70;;;2.47;;
53411;SDS011;39307;52.870;13.660;2024-03-23T01:59:16;3.80;;;2.20;;
53411;SDS011;39307;52.870;13.660;2024-03-23T02:01:43;3.40;;;2.10;;
53411;SDS011;39307;52.870;13.660;2024-03-23T02:04:10;3.97;;;2.40;;
53411;SDS011;39307;52.870;13.660;2024-03-23T02:06:37;4.07;;;2.65;;
53411;SDS011;39307;52.870;13.660;2024-03-23T02:09:04;3.88;;;2.50;;
53411;SDS011;39307;52.870;13.660;2024-03-23T02:11:31;4.93;;;2.42;;
53411;SDS011;39307;52.870;13.660;2024-03-23T02:13:58;3.80;;;2.50;;
53411;SDS011;39307;52.870;13.660;2024-03-23T02:16:25;3.83;;;2.35;;
53411;SDS011;39307;52.870;13.660;2024-03-23T02:18:52;4.45;;;2.30;;
53411;SDS011;39307;52.870;13.660;2024-03-23T02:21:18;4.07;;;2.42;;
53411;SDS011;39307;52.870;13.660;2024-03-23T02:23:45;5.00;;;2.30;;
53411;SDS011;39307;52.870;13.660;2024-03-23T02:26:12;3.90;;;2.15;;
53411;SDS011;39307;52.870;13.660;2024-03-23T02:28:40;3.88;;;2.20;;
53411;SDS011;39307;52.870;13.660;2024-03-23T02:31:06;4.07;;;2.30;;
53411;SDS011;39307;52.870;13.660;2024-03-23T02:33:33;3.88;;;2.22;;
53411;SDS011;39307;52.870;13.660;2024-03-23T02:36:00;4.45;;;2.38;;
53411;SDS011;39307;52.870;13.660;2024-03-23T02:38:27;4.15;;;2.30;;
53411;SDS011;39307;52.870;13.660;2024-03-23T02:40:54;3.88;;;2.30;;
53411;SDS011;39307;52.870;13.660;2024-03-23T02:43:27;3.88;;;2.42;;
53411;SDS011;39307;52.870;13.660;2024-03-23T02:45:54;3.57;;;2.17;;
53411;SDS011;39307;52.870;13.660;2024-03-23T02:48:20;3.65;;;2.30;;
53411;SDS011;39307;52.870;13.660;2024-03-23T02:50:47;3.70;;;2.20;;
53411;SDS011;39307;52.870;13.660;2024-03-23T02:53:14;3.58;;;2.20;;
53411;SDS011;39307;52.870;13.660;2024-03-23T02:55:41;4.90;;;2.50;;
53411;SDS011;39307;52.870;13.660;2024-03-23T02:58:08;4.57;;;2.30;;
53411;SDS011;39307;52.870;13.660;2024-03-23T03:00:35;3.35;;;2.00;;
53411;SDS011;39307;52.870;13.660;2024-03-23T03:03:02;4.05;;;2.30;;
53411;SDS011;39307;52.870;13.660;2024-03-23T03:05:29;3.78;;;2.22;;
53411;SDS011;39307;52.870;13.660;2024-03-23T03:07:56;3.45;;;2.10;;
53411;SDS011;39307;52.870;13.660;2024-03-23T03:10:23;3.03;;;2.00;;
53411;SDS011;39307;52.870;13.660;2024-03-23T03:12:50;3.67;;;2.30;;
53411;SDS011;39307;52.870;13.660;2024-03-23T03:15:17;2.85;;;1.85;;
53411;SDS011;39307;52.870;13.660;2024-03-23T03:17:44;3.72;;;2.22;;
53411;SDS011;39307;52.870;13.660;2024-03-23T03:20:11;3.95;;;2.10;;
53411;SDS011;39307;52.870;13.660;2024-03-23T03:22:38;3.55;;;2.20;;
53411;SDS011;39307;52.870;13.660;2024-03-23T03:25:05;4.05;;;2.30;;
53411;SDS011;39307;52.870;13.660;2024-03-23T03:27:32;3.75;;;2.30;;
53411;SDS011;39307;52.870;13.660;2024-03-23T03:29:59;4.22;;;2.13;;
53411;SDS011;39307;52.870;13.660;2024-03-23T03:32:27;3.37;;;2.00;;
53411;SDS011;39307;52.870;13.660;2024-03-23T03:34:58;3.90;;;2.20;;
53411;SDS011;39307;52.870;13.660;2024-03-23T03:37:25;3.57;;;2.10;;
53411;SDS011;39307;52.870;13.660;2024-03-23T03:39:52;3.63;;;2.08;;
53411;SDS011;39307;52.870;13.660;2024-03-23T03:42:19;3.05;;;2.00;;
53411;SDS011;39307;52.870;13.660;2024-03-23T03:44:46;3.47;;;2.17;;
53411;SDS011;39307;52.870;13.660;2024-03-23T03:47:13;3.63;;;2.10;;
53411;SDS011;39307;52.870;13.660;2024-03-23T03:49:40;2.80;;;1.90;;
53411;SDS011;39307;52.870;13.660;2024-03-23T03:52:07;3.30;;;1.95;;
53411;SDS011;39307;52.870;13.660;2024-03-23T03:54:34;3.33;;;2.00;;
53411;SDS011;39307;52.870;13.660;2024-03-23T03:57:01;3.17;;;1.90;;
53411;SDS011;39307;52.870;13.660;2024-03-23T03:59:28;2.90;;;2.00;;
53411;SDS011;39307;52.870;13.660;2024-03-23T04:01:55;2.85;;;1.90;;
53411;SDS011;39307;52.870;13.660;2024-03-23T04:04:22;3.03;;;1.87;;
53411;SDS011;39307;52.870;13.660;2024-03-23T04:06:48;3.70;;;2.13;;
53411;SDS011;39307;52.870;13.660;2024-03-23T04:09:15;3.67;;;1.90;;
53411;SDS011;39307;52.870;13.660;2024-03-23T04:11:42;3.40;;;2.10;;
53411;SDS011;39307;52.870;13.660;2024-03-23T04:14:09;2.97;;;2.00;;
53411;SDS011;39307;52.870;13.660;2024-03-23T04:16:36;3.30;;;1.88;;
53411;SDS011;39307;52.870;13.660;2024-03-23T04:19:03;3.40;;;2.05;;
53411;SDS011;39307;52.870;13.660;2024-03-23T04:21:30;3.00;;;1.92;;
53411;SDS011;39307;52.870;13.660;2024-03-23T04:23:57;3.43;;;2.00;;
53411;SDS011;39307;52.870;13.660;2024-03-23T04:26:23;3.33;;;1.83;;
53411;SDS011;39307;52.870;13.660;2024-03-23T04:28:50;3.10;;;1.83;;
53411;SDS011;39307;52.870;13.660;2024-03-23T04:31:17;2.70;;;1.80;;
53411;SDS011;39307;52.870;13.660;2024-03-23T04:33:45;3.57;;;2.10;;
53411;SDS011;39307;52.870;13.660;2024-03-23T04:36:12;3.10;;;1.77;;
53411;SDS011;39307;52.870;13.660;2024-03-23T04:38:39;2.65;;;1.73;;
53411;SDS011;39307;52.870;13.660;2024-03-23T04:41:06;3.10;;;1.80;;
53411;SDS011;39307;52.870;13.660;2024-03-23T04:43:32;3.13;;;2.00;;
53411;SDS011;39307;52.870;13.660;2024-03-23T04:45:59;3.08;;;1.80;;
53411;SDS011;39307;52.870;13.660;2024-03-23T04:48:26;3.00;;;1.88;;
53411;SDS011;39307;52.870;13.660;2024-03-23T04:50:55;3.10;;;2.00;;
53411;SDS011;39307;52.870;13.660;2024-03-23T04:53:24;3.08;;;1.73;;
53411;SDS011;39307;52.870;13.660;2024-03-23T04:55:51;3.15;;;1.88;;
53411;SDS011;39307;52.870;13.660;2024-03-23T04:58:17;3.15;;;1.90;;
53411;SDS011;39307;52.870;13.660;2024-03-23T05:00:44;3.17;;;1.90;;
53411;SDS011;39307;52.870;13.660;2024-03-23T05:03:11;3.20;;;2.00;;
53411;SDS011;39307;52.870;13.660;2024-03-23T05:05:38;2.78;;;1.90;;
53411;SDS011;39307;52.870;13.660;2024-03-23T05:08:05;3.20;;;1.93;;
53411;SDS011;39307;52.870;13.660;2024-03-23T05:10:32;2.97;;;1.83;;
53411;SDS011;39307;52.870;13.660;2024-03-23T05:12:59;2.65;;;1.80;;
53411;SDS011;39307;52.870;13.660;2024-03-23T05:15:26;3.50;;;2.00;;
53411;SDS011;39307;52.870;13.660;2024-03-23T05:17:53;2.90;;;1.83;;
53411;SDS011;39307;52.870;13.660;2024-03-23T05:20:20;2.58;;;1.75;;
53411;SDS011;39307;52.870;13.660;2024-03-23T05:22:47;3.00;;;1.80;;
53411;SDS011;39307;52.870;13.660;2024-03-23T05:25:13;2.90;;;1.85;;
53411;SDS011;39307;52.870;13.660;2024-03-23T05:27:40;2.80;;;1.90;;
53411;SDS011;39307;52.870;13.660;2024-03-23T05:30:07;2.72;;;1.80;;
53411;SDS011;39307;52.870;13.660;2024-03-23T05:32:34;2.67;;;1.77;;
53411;SDS011;39307;52.870;13.660;2024-03-23T05:35:01;2.70;;;1.80;;
53411;SDS011;39307;52.870;13.660;2024-03-23T05:37:28;2.80;;;1.80;;
53411;SDS011;39307;52.870;13.660;2024-03-23T05:39:55;3.10;;;1.90;;
53411;SDS011;39307;52.870;13.660;2024-03-23T05:42:22;2.80;;;1.75;;
53411;SDS011;39307;52.870;13.660;2024-03-23T05:44:49;2.55;;;1.77;;
53411;SDS011;39307;52.870;13.660;2024-03-23T05:47:16;2.80;;;1.80;;
53411;SDS011;39307;52.870;13.660;2024-03-23T05:49:42;2.88;;;1.80;;
53411;SDS011;39307;52.870;13.660;2024-03-23T05:52:11;2.88;;;1.83;;
53411;SDS011;39307;52.870;13.660;2024-03-23T05:54:39;3.00;;;1.92;;
53411;SDS011;39307;52.870;13.660;2024-03-23T05:57:06;2.70;;;1.60;;
53411;SDS011;39307;52.870;13.660;2024-03-23T05:59:33;2.75;;;1.83;;
53411;SDS011;39307;52.870;13.660;2024-03-23T06:02:00;2.87;;;1.80;;
53411;SDS011;39307;52.870;13.660;2024-03-23T06:04:26;2.63;;;1.73;;
53411;SDS011;39307;52.870;13.660;2024-03-23T06:06:53;3.50;;;2.00;;
53411;SDS011;39307;52.870;13.660;2024-03-23T06:09:20;3.73;;;1.90;;
53411;SDS011;39307;52.870;13.660;2024-03-23T06:11:48;3.10;;;1.70;;
53411;SDS011;39307;52.870;13.660;2024-03-23T06:14:15;2.95;;;1.80;;
53411;SDS011;39307;52.870;13.660;2024-03-23T06:16:41;3.00;;;1.90;;
53411;SDS011;39307;52.870;13.660;2024-03-23T06:19:08;3.40;;;1.90;;
53411;SDS011;39307;52.870;13.660;2024-03-23T06:21:35;3.38;;;1.90;;
53411;SDS011;39307;52.870;13.660;2024-03-23T06:24:02;3.75;;;2.17;;
53411;SDS011;39307;52.870;13.660;2024-03-23T06:26:29;3.40;;;1.88;;
53411;SDS011;39307;52.870;13.660;2024-03-23T06:28:56;3.05;;;1.88;;
53411;SDS011;39307;52.870;13.660;2024-03-23T06:31:22;2.97;;;1.80;;
53411;SDS011;39307;52.870;13.660;2024-03-23T06:33:49;3.33;;;1.90;;
53411;SDS011;39307;52.870;13.660;2024-03-23T06:36:16;3.72;;;2.00;;
53411;SDS011;39307;52.870;13.660;2024-03-23T06:38:44;3.25;;;1.83;;
53411;SDS011;39307;52.870;13.660;2024-03-23T06:41:11;4.20;;;2.05;;
53411;SDS011;39307;52.870;13.660;2024-03-23T06:43:38;3.47;;;1.88;;
53411;SDS011;39307;52.870;13.660;2024-03-23T06:46:05;3.20;;;1.80;;
53411;SDS011;39307;52.870;13.660;2024-03-23T06:48:31;3.38;;;1.80;;
53411;SDS011;39307;52.870;13.660;2024-03-23T06:50:58;3.05;;;1.90;;
53411;SDS011;39307;52.870;13.660;2024-03-23T06:53:25;2.70;;;1.75;;
53411;SDS011;39307;52.870;13.660;2024-03-23T06:55:52;2.80;;;1.77;;
53411;SDS011;39307;52.870;13.660;2024-03-23T06:58:23;2.75;;;1.80;;
53411;SDS011;39307;52.870;13.660;2024-03-23T07:00:50;3.27;;;2.00;;
53411;SDS011;39307;52.870;13.660;2024-03-23T07:03:17;2.92;;;1.77;;
53411;SDS011;39307;52.870;13.660;2024-03-23T07:05:44;3.03;;;1.60;;
53411;SDS011;39307;52.870;13.660;2024-03-23T07:08:11;3.13;;;1.65;;
53411;SDS011;39307;52.870;13.660;2024-03-23T07:10:41;3.42;;;1.80;;
53411;SDS011;39307;52.870;13.660;2024-03-23T07:13:08;3.35;;;1.77;;
53411;SDS011;39307;52.870;13.660;2024-03-23T07:15:34;2.65;;;1.50;;
53411;SDS011;39307;52.870;13.660;2024-03-23T07:18:01;3.23;;;1.60;;
53411;SDS011;39307;52.870;13.660;2024-03-23T07:20:28;3.90;;;1.90;;
53411;SDS011;39307;52.870;13.660;2024-03-23T07:22:55;3.20;;;1.80;;
53411;SDS011;39307;52.870;13.660;2024-03-23T07:25:22;3.10;;;1.70;;
53411;SDS011;39307;52.870;13.660;2024-03-23T07:27:49;2.80;;;1.77;;
53411;SDS011;39307;52.870;13.660;2024-03-23T07:30:16;3.35;;;1.88;;
53411;SDS011;39307;52.870;13.660;2024-03-23T07:32:44;3.05;;;1.60;;
53411;SDS011;39307;52.870;13.660;2024-03-23T07:35:11;3.03;;;1.80;;
53411;SDS011;39307;52.870;13.660;2024-03-23T07:37:37;3.70;;;1.80;;
53411;SDS011;39307;52.870;13.660;2024-03-23T07:40:04;3.28;;;2.00;;
53411;SDS011;39307;52.870;13.660;2024-03-23T07:42:32;4.40;;;2.60;;
53411;SDS011;39307;52.870;13.660;2024-03-23T07:44:59;5.75;;;3.83;;
53411;SDS011;39307;52.870;13.660;2024-03-23T07:47:26;4.60;;;2.73;;
53411;SDS011;39307;52.870;13.660;2024-03-23T07:49:52;3.47;;;2.10;;
53411;SDS011;39307;52.870;13.660;2024-03-23T07:52:19;3.58;;;2.00;;
53411;SDS011;39307;52.870;13.660;2024-03-23T07:54:46;3.38;;;2.13;;
53411;SDS011;39307;52.870;13.660;2024-03-23T07:57:13;3.40;;;2.05;;
53411;SDS011;39307;52.870;13.660;2024-03-23T07:59:40;3.45;;;2.03;;
53411;SDS011;39307;52.870;13.660;2024-03-23T08:02:06;3.55;;;2.00;;
53411;SDS011;39307;52.870;13.660;2024-03-23T08:04:33;3.30;;;2.22;;
53411;SDS011;39307;52.870;13.660;2024-03-23T08:07:00;4.38;;;2.42;;
53411;SDS011;39307;52.870;13.660;2024-03-23T08:09:27;4.00;;;2.20;;
53411;SDS011;39307;52.870;13.660;2024-03-23T08:11:54;2.95;;;1.88;;
53411;SDS011;39307;52.870;13.660;2024-03-23T08:14:20;3.38;;;2.15;;
53411;SDS011;39307;52.870;13.660;2024-03-23T08:16:47;4.10;;;2.13;;
53411;SDS011;39307;52.870;13.660;2024-03-23T08:19:14;3.47;;;2.17;;
53411;SDS011;39307;52.870;13.660;2024-03-23T08:21:41;3.75;;;2.28;;
53411;SDS011;39307;52.870;13.660;2024-03-23T08:24:08;4.20;;;2.78;;
53411;SDS011;39307;52.870;13.660;2024-03-23T08:26:35;3.95;;;2.42;;
53411;SDS011;39307;52.870;13.660;2024-03-23T08:29:01;5.00;;;2.67;;
53411;SDS011;39307;52.870;13.660;2024-03-23T08:31:29;4.28;;;2.53;;
53411;SDS011;39307;52.870;13.660;2024-03-23T08:33:55;4.20;;;2.40;;
53411;SDS011;39307;52.870;13.660;2024-03-23T08:36:22;4.07;;;2.40;;
53411;SDS011;39307;52.870;13.660;2024-03-23T08:38:49;3.60;;;2.40;;
53411;SDS011;39307;52.870;13.660;2024-03-23T08:41:16;4.43;;;2.40;;
53411;SDS011;39307;52.870;13.660;2024-03-23T08:43:43;3.40;;;2.13;;
53411;SDS011;39307;52.870;13.660;2024-03-23T08:46:10;4.68;;;2.60;;
53411;SDS011;39307;52.870;13.660;2024-03-23T08:48:39;3.92;;;2.20;;
53411;SDS011;39307;52.870;13.660;2024-03-23T08:51:12;3.80;;;2.30;;
53411;SDS011;39307;52.870;13.660;2024-03-23T08:53:40;4.88;;;2.40;;
53411;SDS011;39307;52.870;13.660;2024-03-23T08:56:08;3.63;;;2.28;;
53411;SDS011;39307;52.870;13.660;2024-03-23T08:58:36;3.75;;;2.25;;
53411;SDS011;39307;52.870;13.660;2024-03-23T09:01:10;4.63;;;2.30;;
53411;SDS011;39307;52.870;13.660;2024-03-23T09:03:38;4.35;;;2.70;;
53411;SDS011;39307;52.870;13.660;2024-03-23T09:06:09;3.58;;;2.00;;
53411;SDS011;39307;52.870;13.660;2024-03-23T09:08:40;3.80;;;2.30;;
53411;SDS011;39307;52.870;13.660;2024-03-23T09:11:07;4.10;;;2.38;;
53411;SDS011;39307;52.870;13.660;2024-03-23T09:13:39;3.58;;;2.10;;
53411;SDS011;39307;52.870;13.660;2024-03-23T09:16:06;3.30;;;2.10;;
53411;SDS011;39307;52.870;13.660;2024-03-23T09:18:34;4.72;;;2.20;;
53411;SDS011;39307;52.870;13.660;2024-03-23T09:21:10;4.10;;;2.20;;
53411;SDS011;39307;52.870;13.660;2024-03-23T09:23:39;3.33;;;2.13;;
53411;SDS011;39307;52.870;13.660;2024-03-23T09:26:09;4.00;;;2.20;;
53411;SDS011;39307;52.870;13.660;2024-03-23T09:28:36;3.75;;;2.10;;
53411;SDS011;39307;52.870;13.660;2024-03-23T09:31:03;4.07;;;2.15;;
53411;SDS011;39307;52.870;13.660;2024-03-23T09:33:32;3.63;;;2.10;;
53411;SDS011;39307;52.870;13.660;2024-03-23T09:36:05;3.38;;;2.20;;
53411;SDS011;39307;52.870;13.660;2024-03-23T09:38:33;3.20;;;2.10;;
53411;SDS011;39307;52.870;13.660;2024-03-23T09:41:00;4.43;;;2.30;;
53411;SDS011;39307;52.870;13.660;2024-03-23T09:43:32;3.45;;;2.15;;
53411;SDS011;39307;52.870;13.660;2024-03-23T09:45:59;3.75;;;2.10;;
53411;SDS011;39307;52.870;13.660;2024-03-23T09:48:28;2.72;;;1.90;;
53411;SDS011;39307;52.870;13.660;2024-03-23T09:50:55;4.45;;;2.15;;
53411;SDS011;39307;52.870;13.660;2024-03-23T09:53:22;3.30;;;2.08;;
53411;SDS011;39307;52.870;13.660;2024-03-23T09:55:48;5.07;;;2.40;;
53411;SDS011;39307;52.870;13.660;2024-03-23T09:58:15;3.85;;;2.10;;
53411;SDS011;39307;52.870;13.660;2024-03-23T10:00:44;3.90;;;2.13;;
53411;SDS011;39307;52.870;13.660;2024-03-23T10:03:11;3.87;;;2.30;;
53411;SDS011;39307;52.870;13.660;2024-03-23T10:05:37;3.45;;;2.28;;
53411;SDS011;39307;52.870;13.660;2024-03-23T10:08:25;4.80;;;2.47;;
53411;SDS011;39307;52.870;13.660;2024-03-23T10:10:51;4.10;;;2.30;;
53411;SDS011;39307;52.870;13.660;2024-03-23T10:13:25;3.47;;;2.10;;
53411;SDS011;39307;52.870;13.660;2024-03-23T10:15:56;4.32;;;2.35;;
53411;SDS011;39307;52.870;13.660;2024-03-23T10:18:24;3.65;;;2.05;;
53411;SDS011;39307;52.870;13.660;2024-03-23T10:20:52;3.50;;;2.20;;
53411;SDS011;39307;52.870;13.660;2024-03-23T10:23:35;3.38;;;2.25;;
53411;SDS011;39307;52.870;13.660;2024-03-23T10:26:12;3.60;;;2.30;;
53411;SDS011;39307;52.870;13.660;2024-03-23T10:29:02;4.32;;;2.38;;
53411;SDS011;39307;52.870;13.660;2024-03-23T10:31:30;3.70;;;2.25;;
53411;SDS011;39307;52.870;13.660;2024-03-23T10:33:57;3.53;;;2.20;;
53411;SDS011;39307;52.870;13.660;2024-03-23T10:36:24;3.92;;;2.33;;
53411;SDS011;39307;52.870;13.660;2024-03-23T10:38:51;3.80;;;2.35;;
53411;SDS011;39307;52.870;13.660;2024-03-23T10:41:19;4.30;;;1.90;;
53411;SDS011;39307;52.870;13.660;2024-03-23T10:43:47;3.92;;;2.00;;
53411;SDS011;39307;52.870;13.660;2024-03-23T10:46:15;3.83;;;2.42;;
53411;SDS011;39307;52.870;13.660;2024-03-23T10:48:43;4.07;;;2.33;;
53411;SDS011;39307;52.870;13.660;2024-03-23T10:51:10;3.63;;;2.30;;
53411;SDS011;39307;52.870;13.660;2024-03-23T10:53:38;3.15;;;2.13;;
53411;SDS011;39307;52.870;13.660;2024-03-23T10:56:05;3.55;;;2.13;;
53411;SDS011;39307;52.870;13.660;2024-03-23T10:58:37;3.75;;;2.28;;
53411;SDS011;39307;52.870;13.660;2024-03-23T11:01:12;3.28;;;1.95;;
53411;SDS011;39307;52.870;13.660;2024-03-23T11:03:40;3.75;;;2.30;;
53411;SDS011;39307;52.870;13.660;2024-03-23T11:06:34;4.10;;;2.30;;
53411;SDS011;39307;52.870;13.660;2024-03-23T11:09:04;3.70;;;2.30;;
53411;SDS011;39307;52.870;13.660;2024-03-23T11:14:48;2.85;;;1.90;;
53411;SDS011;39307;52.870;13.660;2024-03-23T11:17:24;3.65;;;2.00;;
53411;SDS011;39307;52.870;13.660;2024-03-23T11:19:58;3.30;;;2.10;;
53411;SDS011;39307;52.870;13.660;2024-03-23T11:25:18;3.47;;;2.10;;
53411;SDS011;39307;52.870;13.660;2024-03-23T11:27:46;3.30;;;1.90;;
53411;SDS011;39307;52.870;13.660;2024-03-23T11:30:16;4.13;;;2.27;;
53411;SDS011;39307;52.870;13.660;2024-03-23T11:32:52;3.80;;;2.10;;
53411;SDS011;39307;52.870;13.660;2024-03-23T11:35:27;3.15;;;2.10;;
53411;SDS011;39307;52.870;13.660;2024-03-23T11:38:05;3.50;;;2.10;;
53411;SDS011;39307;52.870;13.660;2024-03-23T11:40:39;3.90;;;2.05;;
53411;SDS011;39307;52.870;13.660;2024-03-23T11:43:11;3.55;;;2.20;;
53411;SDS011;39307;52.870;13.660;2024-03-23T11:45:52;3.40;;;2.00;;
53411;SDS011;39307;52.870;13.660;2024-03-23T11:48:19;4.83;;;2.07;;
53411;SDS011;39307;52.870;13.660;2024-03-23T11:50:51;3.40;;;2.15;;
53411;SDS011;39307;52.870;13.660;2024-03-23T11:53:23;3.33;;;2.20;;
53411;SDS011;39307;52.870;13.660;2024-03-23T11:55:51;2.97;;;1.70;;
53411;SDS011;39307;52.870;13.660;2024-03-23T11:58:21;3.37;;;2.10;;
53411;SDS011;39307;52.870;13.660;2024-03-23T12:00:55;3.90;;;2.15;;
53411;SDS011;39307;52.870;13.660;2024-03-23T12:03:28;3.83;;;2.10;;
53411;SDS011;39307;52.870;13.660;2024-03-23T12:05:57;4.03;;;2.00;;
53411;SDS011;39307;52.870;13.660;2024-03-23T12:11:10;4.13;;;2.33;;
53411;SDS011;39307;52.870;13.660;2024-03-23T12:13:42;3.05;;;1.92;;
53411;SDS011;39307;52.870;13.660;2024-03-23T12:16:17;3.40;;;2.00;;
53411;SDS011;39307;52.870;13.660;2024-03-23T12:18:46;3.42;;;1.80;;
53411;SDS011;39307;52.870;13.660;2024-03-23T12:21:15;3.25;;;1.95;;
53411;SDS011;39307;52.870;13.660;2024-03-23T12:23:42;4.03;;;2.20;;
53411;SDS011;39307;52.870;13.660;2024-03-23T12:26:10;3.43;;;1.93;;
53411;SDS011;39307;52.870;13.660;2024-03-23T12:28:37;3.47;;;2.10;;
53411;SDS011;39307;52.870;13.660;2024-03-23T12:31:04;3.92;;;2.33;;
53411;SDS011;39307;52.870;13.660;2024-03-23T12:33:31;3.38;;;2.08;;
53411;SDS011;39307;52.870;13.660;2024-03-23T12:35:58;3.60;;;2.10;;
53411;SDS011;39307;52.870;13.660;2024-03-23T12:38:25;3.67;;;2.20;;
53411;SDS011;39307;52.870;13.660;2024-03-23T12:40:52;3.60;;;2.10;;
53411;SDS011;39307;52.870;13.660;2024-03-23T12:43:19;3.60;;;2.10;;
53411;SDS011;39307;52.870;13.660;2024-03-23T12:45:46;3.05;;;2.00;;
53411;SDS011;39307;52.870;13.660;2024-03-23T12:48:14;3.90;;;2.25;;
53411;SDS011;39307;52.870;13.660;2024-03-23T12:50:41;3.20;;;1.83;;
53411;SDS011;39307;52.870;13.660;2024-03-23T12:53:08;4.00;;;2.10;;
53411;SDS011;39307;52.870;13.660;2024-03-23T12:55:35;3.53;;;2.10;;
53411;SDS011;39307;52.870;13.660;2024-03-23T12:58:02;3.80;;;2.20;;
53411;SDS011;39307;52.870;13.660;2024-03-23T13:00:29;3.45;;;2.00;;
53411;SDS011;39307;52.870;13.660;2024-03-23T13:02:56;3.63;;;2.03;;
53411;SDS011;39307;52.870;13.660;2024-03-23T13:05:23;3.38;;;2.00;;
53411;SDS011;39307;52.870;13.660;2024-03-23T13:07:49;3.23;;;1.90;;
53411;SDS011;39307;52.870;13.660;2024-03-23T13:10:16;3.00;;;1.80;;
53411;SDS011;39307;52.870;13.660;2024-03-23T13:12:43;4.07;;;2.25;;
53411;SDS011;39307;52.870;13.660;2024-03-23T13:15:10;4.35;;;2.08;;
53411;SDS011;39307;52.870;13.660;2024-03-23T13:17:37;3.10;;;1.90;;
53411;SDS011;39307;52.870;13.660;2024-03-23T13:20:04;3.40;;;1.98;;
53411;SDS011;39307;52.870;13.660;2024-03-23T13:22:31;3.45;;;2.00;;
53411;SDS011;39307;52.870;13.660;2024-03-23T13:24:58;3.50;;;1.98;;
53411;SDS011;39307;52.870;13.660;2024-03-23T13:27:25;3.78;;;1.98;;
53411;SDS011;39307;52.870;13.660;2024-03-23T13:29:52;4.00;;;1.92;;
53411;SDS011;39307;52.870;13.660;2024-03-23T13:32:19;2.78;;;1.90;;
53411;SDS011;39307;52.870;13.660;2024-03-23T13:34:45;3.50;;;2.10;;
53411;SDS011;39307;52.870;13.660;2024-03-23T13:37:12;6.75;;;2.30;;
53411;SDS011;39307;52.870;13.660;2024-03-23T13:39:39;25.60;;;5.57;;
53411;SDS011;39307;52.870;13.660;2024-03-23T13:42:05;20.50;;;8.80;;
53411;SDS011;39307;52.870;13.660;2024-03-23T13:44:32;19.23;;;8.27;;
53411;SDS011;39307;52.870;13.660;2024-03-23T13:46:59;28.65;;;7.70;;
53411;SDS011;39307;52.870;13.660;2024-03-23T13:49:27;19.05;;;6.45;;
53411;SDS011;39307;52.870;13.660;2024-03-23T13:51:55;17.02;;;6.05;;
53411;SDS011;39307;52.870;13.660;2024-03-23T13:54:22;16.88;;;6.32;;
53411;SDS011;39307;52.870;13.660;2024-03-23T13:56:51;19.07;;;6.17;;
53411;SDS011;39307;52.870;13.660;2024-03-23T13:59:19;15.15;;;6.28;;
53411;SDS011;39307;52.870;13.660;2024-03-23T14:01:46;18.52;;;7.07;;
53411;SDS011;39307;52.870;13.660;2024-03-23T14:04:13;18.88;;;6.57;;
53411;SDS011;39307;52.870;13.660;2024-03-23T14:06:39;17.77;;;7.00;;
53411;SDS011;39307;52.870;13.660;2024-03-23T14:09:06;20.58;;;10.05;;
53411;SDS011;39307;52.870;13.660;2024-03-23T14:11:32;25.15;;;15.10;;
53411;SDS011;39307;52.870;13.660;2024-03-23T14:14:00;37.10;;;21.38;;
53411;SDS011;39307;52.870;13.660;2024-03-23T14:16:27;36.22;;;27.40;;
53411;SDS011;39307;52.870;13.660;2024-03-23T14:18:53;37.78;;;26.95;;
53411;SDS011;39307;52.870;13.660;2024-03-23T14:21:20;35.95;;;23.52;;
53411;SDS011;39307;52.870;13.660;2024-03-23T14:23:52;36.88;;;26.58;;
53411;SDS011;39307;52.870;13.660;2024-03-23T14:26:18;34.92;;;24.73;;
53411;SDS011;39307;52.870;13.660;2024-03-23T14:28:45;32.80;;;21.80;;
53411;SDS011;39307;52.870;13.660;2024-03-23T14:31:12;26.60;;;18.70;;
53411;SDS011;39307;52.870;13.660;2024-03-23T14:33:39;24.63;;;16.40;;
53411;SDS011;39307;52.870;13.660;2024-03-23T14:36:06;17.73;;;10.65;;
53411;SDS011;39307;52.870;13.660;2024-03-23T14:38:33;19.25;;;12.95;;
53411;SDS011;39307;52.870;13.660;2024-03-23T14:41:00;18.33;;;12.38;;
53411;SDS011;39307;52.870;13.660;2024-03-23T14:43:27;19.70;;;11.02;;
53411;SDS011;39307;52.870;13.660;2024-03-23T14:46:12;17.23;;;10.30;;
53411;SDS011;39307;52.870;13.660;2024-03-23T14:48:41;16.45;;;9.85;;
53411;SDS011;39307;52.870;13.660;2024-03-23T14:51:09;16.73;;;8.52;;
53411;SDS011;39307;52.870;13.660;2024-03-23T14:53:37;14.10;;;7.55;;
53411;SDS011;39307;52.870;13.660;2024-03-23T14:56:06;13.25;;;8.10;;
53411;SDS011;39307;52.870;13.660;2024-03-23T14:58:34;15.20;;;8.00;;
53411;SDS011;39307;52.870;13.660;2024-03-23T15:01:07;13.50;;;7.43;;
53411;SDS011;39307;52.870;13.660;2024-03-23T15:03:34;23.20;;;7.88;;
53411;SDS011;39307;52.870;13.660;2024-03-23T15:06:05;16.05;;;9.55;;
53411;SDS011;39307;52.870;13.660;2024-03-23T15:08:32;50.30;;;9.57;;
53411;SDS011;39307;52.870;13.660;2024-03-23T15:10:59;44.58;;;8.30;;
53411;SDS011;39307;52.870;13.660;2024-03-23T15:13:28;41.92;;;6.88;;
53411;SDS011;39307;52.870;13.660;2024-03-23T15:15:55;35.83;;;6.13;;
53411;SDS011;39307;52.870;13.660;2024-03-23T15:18:21;36.58;;;6.60;;
53411;SDS011;39307;52.870;13.660;2024-03-23T15:20:52;29.48;;;5.50;;
53411;SDS011;39307;52.870;13.660;2024-03-23T15:23:23;32.72;;;6.45;;
53411;SDS011;39307;52.870;13.660;2024-03-23T15:28:24;23.15;;;5.03;;
53411;SDS011;39307;52.870;13.660;2024-03-23T15:30:51;24.15;;;4.90;;
53411;SDS011;39307;52.870;13.660;2024-03-23T15:33:18;22.40;;;4.35;;
53411;SDS011;39307;52.870;13.660;2024-03-23T15:35:45;23.00;;;5.13;;
53411;SDS011;39307;52.870;13.660;2024-03-23T15:38:12;22.30;;;4.80;;
53411;SDS011;39307;52.870;13.660;2024-03-23T15:40:39;19.17;;;3.78;;